Rejestracja

Wszystkie dane podawane są w czasie UTC za wyjątkiem miejsc gdzie jest jednoznacznie podane, że jest inaczej. Dane podawane w serwisie mają charakter informacyjny!!!
Informacje w sprawie dostępu do serwisu pod numerem tel. +48 261-828-559 lub +48 261-828-138
Informacja dla żołnierzy i pracowników wojska: Prosimy o niezwłoczną zmianę adresu e-mail w profilu użytkownika na pocztę w domenie @ron.mil.pl
Brak służbowego adresu e-mail skutkuje usunięciem konta.

Aktualna Pogoda
 
Pogoda w Polsce
9°C Szczecin 3°C Suwałki 5°C Warszawa 10°C Poznan
8°C Opole 10°C Kraków 8°C Rzeszów
Więcej miast w Polsce

Pogoda w Europie
7°C Berlin 5°C Paryz 5°C Bruksela 4°C Oslo
8°C Praga 11°C Zagrzeb
Więcej miast w Europie

Metary wojskowe test
METAR EPBC 221000Z 15007KT CAVOK 06/01 Q0998=
METAR EPCE 221030Z 19010KT 160V240 CAVOK 07/01 Q0990 RMK 070 066 0/0=
METAR EPDA 221030Z 21016KT 9999 BKN059 10/02 Q0988 RMK 096 060 7/7=
METAR EPDE 221030Z 18008KT CAVOK 06/01 Q1000 RMK 057 074 5/5=
METAR EPIR 221030Z 17016KT CAVOK 07/02 Q0994 RMK 067 074 4/3=
METAR EPKS 221030Z 21013KT 180V240 CAVOK 10/03 Q0994 RMK 102 060 4/4=
METAR EPLK 221030Z 19006KT 160V230 CAVOK 07/04 Q0997 RMK 069 082 6/6=
METAR EPLY 221030Z 19010KT CAVOK 08/03 Q0996 RMK 080 073 6/6=
METAR EPMB 221030Z 18013KT 9999 FEW100 SCT200 05/02 Q0993 RMK 047 080 3/2=
METAR EPMI 221030Z 19008KT 150V270 9999 FEW050 SCT090 BKN093 08/02 Q0991 RMK 084 062 7/2=
METAR EPMM 221030Z 18008KT 160V220 9999 SCT120 BKN200 06/01 Q0999 RMK 055 074 6/3=
METAR EPNA 221000Z 18008KT 9999 FEW040 SCT100 BKN200 07/01 Q0991 RMK 071 064 6/2=
SPECI EPOK 221035Z 20016G27KT CAVOK 09/01 Q0990 RMK 091 056 3/3=
METAR EPPR 221030Z 16006KT CAVOK 07/01 Q0992 RMK 066 065 2/2=
METAR EPPW 221030Z 19010KT CAVOK 08/04 Q0994 RMK 080 078 5/5=
METAR EPSN 221030Z 21014KT 170V230 9999 FEW033 BKN050 09/02 Q0989 RMK 091 063 7/2=
METAR EPTM 221030Z 18008KT 9999 NSC 08/02 Q0998 RMK 076 068 6/6=


 

Prawa autorskie©2007 SSH SZ RP. Wszelkie prawa zastrzeżone.